Rochester, Wisconsin
Current Conditions -  °F | °C
As of 1:35 AM on Monday 22 Dec 2014 (Local Time) from KBUU Reporting Station
Overcast Overcast  
Wind Chill: 24°   Ceiling: 4400
Heat Index: 32°   Visibility: 7mi
Dew Point: 28°   Wind: 8mph
Humidity: 85%   Direction: 160°SSE
Pressure: 29.97"   Gusts: NA
Location:  42.74°N, 88.22°W
Report Text: KBUU 220735Z AUTO 16007KT 7SM BKN044 OVC050 00/M02 A2997 RMK AO2 T10021024
Loading
Personal Weather Stations






























Interactive Weather Map New forecast layout! Learn more

10-Day Weather Forecast

Advertisements
Track Severe Weather on mobile